Time;durP1;ratioP1;P1;durP2;ratioP2;P2;SDS_P1;SDS_P2;PMS_P1;PMS_P2;Temp;Humidity;BMP_temperature;BMP_pressure;BME280_temperature;BME280_humidity;BME280_pressure;Samples;Min_cycle;Max_cycle;Signal;HPM_P1;HPM_P2
2022/12/20 00:02:12;;;;;;;33.60;23.95;;;;;;;1.12;92.93;101101.28;6307869;22;20018;-72
2022/12/20 00:05:19;;;;;;;30.77;23.48;;;;;;;1.15;92.95;101101.25;6307661;22;20098;-72
2022/12/20 00:08:22;;;;;;;33.70;24.65;;;;;;;1.04;93.15;101098.72;6307527;22;20401;-72
2022/12/20 00:11:26;;;;;;;;;;;;;;;1.08;93.16;101100.41;6308039;22;20344;-72
2022/12/20 00:14:29;;;;;;;32.70;23.83;;;;;;;1.20;92.43;101094.34;6288711;22;20250;-72
2022/12/20 00:17:33;;;;;;;34.42;25.38;;;;;;;1.09;92.87;101099.56;6307717;22;20049;-72
2022/12/20 00:20:36;;;;;;;32.60;23.90;;;;;;;1.11;93.00;101104.69;6307576;22;20350;-72
2022/12/20 00:23:40;;;;;;;40.78;26.88;;;;;;;1.16;92.58;101095.22;6307441;22;20460;-72
2022/12/20 00:26:43;;;;;;;26.98;21.02;;;;;;;1.22;92.14;101092.63;6306042;22;20069;-72
2022/12/20 00:29:47;;;;;;;33.25;24.63;;;;;;;1.06;93.27;101086.69;6306113;22;20026;-72
2022/12/20 00:32:50;;;;;;;30.15;23.40;;;;;;;1.14;92.63;101079.78;6306018;22;20023;-72
2022/12/20 00:35:55;;;;;;;;;;;;;;;1.12;92.76;101068.63;6288687;22;20092;-72
2022/12/20 00:39:00;;;;;;;32.03;23.90;;;;;;;1.06;92.89;101075.53;6307101;22;19955;-72
2022/12/20 00:42:03;;;;;;;31.42;23.75;;;;;;;0.94;93.89;101071.28;6307463;22;20022;-72
2022/12/20 00:45:07;;;;;;;30.00;22.70;;;;;;;1.00;93.44;101050.66;6307312;22;20098;-71
2022/12/20 00:48:10;;;;;;;29.77;22.40;;;;;;;1.13;92.81;101057.47;6288512;22;20057;-72
2022/12/20 00:51:20;;;;;;;28.38;21.30;;;;;;;0.95;93.04;101061.84;6307414;22;20468;-71
2022/12/20 00:54:24;;;;;;;31.98;23.63;;;;;;;1.12;92.62;101048.03;6307529;22;20030;-72
2022/12/20 00:57:27;;;;;;;28.73;22.33;;;;;;;1.12;92.37;101048.03;6286306;22;20038;-72
2022/12/20 01:00:30;;;;;;;29.80;21.77;;;;;;;1.03;93.03;101032.63;6305622;22;20025;-72
2022/12/20 01:03:33;;;;;;;;;;;;;;;0.99;92.95;101041.25;6306604;22;20021;-72
2022/12/20 01:06:37;;;;;;;27.38;19.67;;;;;;;1.04;93.31;101034.31;6307012;22;19918;-72
2022/12/20 01:09:40;;;;;;;29.30;22.27;;;;;;;1.03;92.63;101040.34;6307256;22;20054;-72
2022/12/20 01:12:44;;;;;;;30.73;22.67;;;;;;;1.14;92.96;101045.44;6306691;22;20025;-72
2022/12/20 01:15:47;;;;;;;35.25;26.02;;;;;;;1.03;93.34;101053.22;6287876;22;20026;-72
2022/12/20 01:18:52;;;;;;;62.53;40.67;;;;;;;1.16;92.91;101047.16;6287872;22;20054;-72
2022/12/20 01:21:55;;;;;;;138.88;84.57;;;;;;;1.11;93.39;101041.16;6305502;22;20022;-72
2022/12/20 01:24:58;;;;;;;73.15;47.70;;;;;;;1.01;93.58;101060.09;6286538;22;20049;-71
2022/12/20 01:28:15;;;;;;;;;;;;;;;;;;;;;
2022/12/20 01:31:24;;;;;;;39.28;27.52;;;;;;;1.20;92.34;101057.44;6306117;22;20022;-71
2022/12/20 01:34:28;;;;;;;35.83;25.88;;;;;;;1.11;92.58;101059.19;6306509;22;20460;-72
2022/12/20 01:37:31;;;;;;;32.28;24.17;;;;;;;1.01;92.85;101057.50;6306522;22;20072;-71
2022/12/20 01:40:38;;;;;;;35.38;26.38;;;;;;;0.92;93.47;101050.69;6306625;22;20073;-71
2022/12/20 01:43:47;;;;;;;29.88;23.00;;;;;;;0.90;93.06;101049.00;6306639;22;20022;-71
2022/12/20 01:46:52;;;;;;;30.38;23.23;;;;;;;0.68;93.96;101038.78;6306635;22;20073;-71
2022/12/20 01:50:01;;;;;;;27.98;22.65;;;;;;;0.84;93.60;101026.69;6306640;22;20026;-71
2022/12/20 01:53:05;;;;;;;29.10;22.17;;;;;;;0.91;93.33;101009.50;6306500;22;20029;-71
2022/12/20 01:56:09;;;;;;;30.08;21.23;;;;;;;0.90;93.08;101010.38;6287268;22;20022;-71
2022/12/20 01:59:14;;;;;;;28.38;21.38;;;;;;;0.75;93.59;100997.56;6287221;22;20050;-71
2022/12/20 02:02:17;;;;;;;29.58;23.25;;;;;;;0.85;93.29;100999.22;6286845;22;20069;-71
2022/12/20 02:05:22;;;;;;;31.38;23.33;;;;;;;0.98;92.65;100985.44;6305987;22;20052;-71
2022/12/20 02:08:25;;;;;;;29.60;22.77;;;;;;;1.04;92.60;100989.69;6287966;22;20025;-72
2022/12/20 02:11:35;;;;;;;;;;;;;;;0.97;92.96;100988.03;6307307;22;20025;-72
2022/12/20 02:14:57;;;;;;;38.53;29.38;;;;;;;1.06;92.33;100988.84;6287680;22;19917;-72
2022/12/20 02:18:03;;;;;;;57.92;39.15;;;;;;;0.85;92.84;100994.09;6306349;22;20045;-72
2022/12/20 02:21:31;;;;;;;48.80;34.97;;;;;;;0.77;93.66;100998.44;6305494;22;20094;-72
2022/12/20 02:25:00;;;;;;;40.75;28.45;;;;;;;0.82;93.38;100984.66;6306614;22;20026;-72
2022/12/20 02:28:13;;;;;;;39.45;28.38;;;;;;;0.89;92.86;100980.31;6292684;22;20026;-72
2022/12/20 02:31:24;;;;;;;41.88;29.75;;;;;;;0.74;93.47;100976.13;6305816;22;20362;-72
2022/12/20 02:34:29;;;;;;;35.47;26.35;;;;;;;0.98;92.59;100972.56;6305992;22;20564;-71
2022/12/20 02:37:33;;;;;;;38.45;28.10;;;;;;;1.02;92.12;100963.97;6305946;22;20080;-71
2022/12/20 02:40:42;;;;;;;40.35;29.50;;;;;;;0.91;92.28;100960.59;6305785;22;20480;-71
2022/12/20 02:47:30;;;;;;;36.60;25.52;;;;;;;0.84;93.18;100964.91;6306071;22;20065;-72
2022/12/20 02:50:41;;;;;;;37.55;27.10;;;;;;;0.85;92.30;100979.50;6287193;22;20025;-72
2022/12/20 02:53:44;;;;;;;39.90;27.15;;;;;;;0.61;94.03;100975.31;6305879;22;20087;-72
2022/12/20 02:56:53;;;;;;;41.20;27.80;;;;;;;1.02;92.04;100982.00;6287258;22;20422;-72
2022/12/20 03:00:13;;;;;;;39.80;28.67;;;;;;;1.07;91.76;100976.81;6286566;22;20030;-72
2022/12/20 03:03:21;;;;;;;34.85;24.98;;;;;;;1.02;91.83;100976.84;6286837;22;20026;-72
2022/12/20 03:06:26;;;;;;;37.45;25.70;;;;;;;0.84;92.71;100975.22;6304759;22;20058;-72
2022/12/20 03:09:31;;;;;;;36.05;25.42;;;;;;;0.79;92.54;100974.38;6287306;22;20133;-72
2022/12/20 03:12:35;;;;;;;33.50;25.13;;;;;;;0.83;92.42;100964.91;6286951;22;20073;-72
2022/12/20 03:15:38;;;;;;;33.90;24.83;;;;;;;0.94;92.36;100963.16;6287200;22;20022;-72
2022/12/20 03:18:44;;;;;;;35.67;25.77;;;;;;;0.73;93.24;100958.09;6286897;22;20026;-72
2022/12/20 03:21:47;;;;;;;33.17;23.33;;;;;;;0.97;92.68;100946.84;6306211;22;20072;-72
2022/12/20 03:24:50;;;;;;;31.58;22.92;;;;;;;1.11;91.84;100937.28;6306275;22;20082;-72
2022/12/20 03:27:54;;;;;;;31.05;23.67;;;;;;;1.02;91.98;100938.22;6287223;22;20101;-72
2022/12/20 03:30:59;;;;;;;31.27;22.40;;;;;;;0.85;92.93;100956.31;6287591;22;20026;-72
2022/12/20 03:34:03;;;;;;;30.27;22.75;;;;;;;0.89;93.10;100967.44;6288537;22;20053;-71
2022/12/20 03:37:07;;;;;;;30.52;23.48;;;;;;;0.89;92.86;100965.75;6288451;22;20527;-71
2022/12/20 03:40:14;;;;;;;31.05;23.70;;;;;;;0.97;93.06;100964.84;6289191;22;20045;-71
2022/12/20 03:43:18;;;;;;;34.30;25.05;;;;;;;1.02;92.86;100971.69;6289131;22;20069;-75
2022/12/20 03:46:21;;;;;;;30.05;22.75;;;;;;;1.12;91.94;100955.31;6307935;22;20022;-76
2022/12/20 03:49:26;;;;;;;32.80;22.55;;;;;;;1.09;91.95;100968.22;6289076;22;20021;-76
2022/12/20 03:52:29;;;;;;;31.10;23.95;;;;;;;1.01;92.40;100962.22;6307922;22;20099;-76
2022/12/20 03:55:33;;;;;;;31.02;23.08;;;;;;;0.90;92.91;100958.88;6308164;22;20406;-76
2022/12/20 03:58:36;;;;;;;33.83;24.27;;;;;;;0.93;93.39;100956.28;6288901;22;20021;-77
2022/12/20 04:01:39;;;;;;;32.72;22.75;;;;;;;1.17;92.20;100956.13;6288770;22;20022;-77
2022/12/20 04:04:43;;;;;;;29.55;23.17;;;;;;;1.24;91.80;100936.31;6288950;22;20071;-76
2022/12/20 04:07:49;;;;;;;32.08;24.08;;;;;;;1.15;92.02;100934.69;6307976;22;20033;-77
2022/12/20 04:14:15;;;;;;;28.30;21.48;;;;;;;1.13;92.01;100959.59;6288679;22;20026;-77
2022/12/20 04:17:19;;;;;;;31.67;23.77;;;;;;;1.23;91.84;100949.22;6288129;22;20022;-77
2022/12/20 04:20:24;;;;;;;29.90;22.08;;;;;;;1.03;92.87;100942.50;6286396;22;20072;-77
2022/12/20 04:23:43;;;;;;;30.75;23.00;;;;;;;0.96;93.32;100957.97;6286532;22;20023;-77
2022/12/20 04:26:48;;;;;;;30.33;23.30;;;;;;;1.21;92.55;100943.22;6289269;22;20342;-77
2022/12/20 04:29:53;;;;;;;33.78;25.23;;;;;;;1.21;92.48;100938.06;6286194;22;20026;-76
2022/12/20 04:32:57;;;;;;;34.15;24.83;;;;;;;1.03;92.96;100942.50;6287043;22;20089;-76
2022/12/20 04:36:04;;;;;;;35.47;23.73;;;;;;;1.26;91.96;100934.59;6284538;22;20041;-76
2022/12/20 04:39:07;;;;;;;28.80;21.88;;;;;;;1.19;92.22;100926.94;6285691;22;20057;-76
2022/12/20 04:42:20;;;;;;;28.92;21.85;;;;;;;0.94;93.22;100919.38;6285822;22;20019;-76
2022/12/20 04:45:24;;;;;;;27.63;22.63;;;;;;;0.93;92.75;100915.94;6288294;22;20145;-76
2022/12/20 04:48:31;;;;;;;34.67;24.98;;;;;;;1.01;93.87;100923.59;6288676;22;20071;-76
2022/12/20 04:51:35;;;;;;;33.10;25.40;;;;;;;1.14;92.74;100922.66;6271114;22;20026;-75
2022/12/20 04:54:39;;;;;;;28.85;23.27;;;;;;;0.97;93.65;100937.38;6281709;22;20079;-76
2022/12/20 04:57:50;;;;;;;28.23;22.13;;;;;;;1.03;93.62;100942.50;6281371;22;20148;-76
2022/12/20 05:00:56;;;;;;;27.55;21.73;;;;;;;0.94;93.79;100942.53;6282472;22;20094;-77
2022/12/20 05:04:03;;;;;;;28.95;22.58;;;;;;;1.06;93.28;100939.91;6279754;22;20077;-75
2022/12/20 05:07:10;;;;;;;31.95;23.30;;;;;;;1.22;92.27;100926.91;6282567;22;20026;-74
2022/12/20 05:10:15;;;;;;;28.25;21.92;;;;;;;1.05;92.25;100914.13;6282712;22;20049;-74
2022/12/20 05:13:19;;;;;;;28.55;21.35;;;;;;;1.05;92.84;100909.84;6282746;22;20098;-75
2022/12/20 05:16:24;;;;;;;26.55;21.15;;;;;;;1.06;92.38;100901.28;6282582;22;20026;-75
2022/12/20 05:19:27;;;;;;;28.20;21.13;;;;;;;1.01;92.69;100903.00;6281623;22;20025;-76
2022/12/20 05:29:16;;;;;;;30.92;22.60;;;;;;;1.21;92.33;100894.28;6281939;22;20025;-75
2022/12/20 05:32:19;;;;;;;33.20;22.65;;;;;;;1.07;93.03;100892.66;6300359;22;20026;-76
2022/12/20 05:35:24;;;;;;;28.20;21.13;;;;;;;0.97;93.45;100903.06;6300801;22;20250;-75
2022/12/20 05:38:33;;;;;;;31.08;22.17;;;;;;;1.08;92.55;100909.81;6281952;22;20022;-75
2022/12/20 05:41:39;;;;;;;28.35;21.00;;;;;;;1.00;92.96;100903.88;6281211;22;20021;-75
2022/12/20 05:44:43;;;;;;;27.08;20.55;;;;;;;1.14;92.97;100888.31;6281353;22;20231;-75
2022/12/20 05:47:47;;;;;;;28.40;21.77;;;;;;;1.17;92.34;100885.72;6282324;22;20030;-76
2022/12/20 05:50:50;;;;;;;29.08;22.17;;;;;;;0.93;93.17;100889.34;6281466;22;20026;-76
2022/12/20 05:54:17;;;;;;;26.83;21.08;;;;;;;0.96;93.44;100894.47;6300880;22;20506;-75
2022/12/20 05:57:38;;;;;;;28.27;20.30;;;;;;;0.96;93.60;100894.47;6280894;22;20025;-76
2022/12/20 06:00:44;;;;;;;26.85;20.85;;;;;;;1.20;92.40;100880.56;6282342;22;20022;-76
2022/12/20 06:03:47;;;;;;;28.35;19.33;;;;;;;1.22;92.23;100888.28;6283038;22;20072;-77
2022/12/20 06:06:53;;;;;;;29.45;21.73;;;;;;;1.26;91.61;100888.22;6282064;22;20026;-77
2022/12/20 06:09:57;;;;;;;29.25;23.17;;;;;;;1.23;91.57;100887.41;6282512;22;20049;-76
2022/12/20 06:13:24;;;;;;;33.05;23.65;;;;;;;1.31;91.61;100890.78;6298883;22;20185;-76
2022/12/20 06:16:30;;;;;;;35.47;27.27;;;;;;;1.50;90.57;100871.72;6281828;22;20061;-76
2022/12/20 06:19:34;;;;;;;29.55;22.52;;;;;;;1.30;91.25;100879.59;6282189;22;20125;-76
2022/12/20 06:22:39;;;;;;;27.50;20.30;;;;;;;1.19;91.71;100872.84;6281567;22;20022;-76
2022/12/20 06:25:43;;;;;;;28.20;20.85;;;;;;;1.16;92.31;100877.16;6301030;22;20080;-76
2022/12/20 06:28:53;;;;;;;27.70;20.17;;;;;;;1.26;91.80;100887.38;6300281;22;20163;-77
2022/12/20 06:32:14;;;;;;;29.02;21.90;;;;;;;0.95;93.05;100905.63;6281603;22;20022;-77
2022/12/20 06:35:17;;;;;;;28.67;20.20;;;;;;;1.27;92.20;100899.38;6264112;22;20030;-79
2022/12/20 06:38:20;;;;;;;;;;;;;;;1.26;92.07;100897.69;6281307;22;21070;-79
2022/12/20 06:41:27;;;;;;;26.10;20.10;;;;;;;1.32;91.64;100889.91;6279861;22;19917;-79
2022/12/20 06:44:31;;;;;;;24.20;18.95;;;;;;;1.27;91.91;100879.63;6280297;22;20252;-78
2022/12/20 06:47:36;;;;;;;24.05;17.85;;;;;;;1.03;93.11;100893.56;6281331;22;20077;-77
2022/12/20 06:50:39;;;;;;;25.80;19.88;;;;;;;1.22;92.32;100896.00;6280196;22;20358;-77
2022/12/20 06:53:43;;;;;;;24.88;19.73;;;;;;;1.30;92.08;100895.06;6300319;22;20043;-77
2022/12/20 06:56:46;;;;;;;30.38;21.77;;;;;;;1.19;92.41;100894.31;6282935;22;20081;-77
2022/12/20 06:59:50;;;;;;;25.50;20.33;;;;;;;1.17;93.01;100894.31;6282319;22;20055;-77
2022/12/20 07:02:53;;;;;;;25.92;19.33;;;;;;;1.25;93.00;100886.53;6300737;22;20033;-77
2022/12/20 07:05:57;;;;;;;25.48;19.40;;;;;;;1.03;92.90;100869.53;6300255;22;20030;-77
2022/12/20 07:09:01;;;;;;;24.17;18.48;;;;;;;1.04;93.38;100866.94;6301490;22;20057;-73
2022/12/20 07:12:04;;;;;;;22.60;17.40;;;;;;;1.09;92.93;100872.06;6301834;22;20030;-72
2022/12/20 07:15:08;;;;;;;24.92;18.52;;;;;;;1.33;92.26;100858.97;6302939;22;20553;-73
2022/12/20 07:18:14;;;;;;;26.90;19.75;;;;;;;1.11;92.78;100862.59;6299939;22;20536;-72
2022/12/20 07:21:18;;;;;;;22.42;17.55;;;;;;;1.10;92.91;100869.47;6300797;22;20026;-72
2022/12/20 07:24:22;;;;;;;24.58;19.13;;;;;;;1.07;92.70;100861.75;6298468;22;20023;-73
2022/12/20 07:27:28;;;;;;;23.80;18.38;;;;;;;1.13;92.25;100861.72;6298716;22;20026;-72
2022/12/20 07:30:34;;;;;;;29.15;19.08;;;;;;;1.15;92.99;100849.69;6298562;22;20045;-73
2022/12/20 07:33:38;;;;;;;25.45;18.77;;;;;;;0.89;93.72;100843.88;6298376;22;20026;-73
2022/12/20 07:36:42;;;;;;;26.23;18.48;;;;;;;1.13;93.26;100846.25;6299721;22;20469;-73
2022/12/20 07:39:46;;;;;;;29.10;21.63;;;;;;;1.25;92.36;100834.16;6301368;22;20073;-73
2022/12/20 07:42:49;;;;;;;21.70;17.83;;;;;;;1.05;93.01;100831.72;6300797;22;20026;-72
2022/12/20 07:46:34;;;;;;;21.38;17.30;;;;;;;1.13;93.44;100820.50;6300429;22;20072;-72
2022/12/20 07:49:37;;;;;;;25.55;19.50;;;;;;;1.29;92.41;100815.22;6300045;22;20050;-73
2022/12/20 07:52:43;;;;;;;25.33;18.30;;;;;;;1.21;92.37;100811.84;6299778;22;20068;-72
2022/12/20 07:55:47;;;;;;;25.83;19.67;;;;;;;1.24;92.78;100811.81;6299533;22;20469;-72
2022/12/20 07:58:58;;;;;;;25.88;19.02;;;;;;;1.44;90.72;100814.22;6299991;22;20021;-73
2022/12/20 08:02:02;;;;;;;27.95;20.88;;;;;;;1.44;91.25;100815.09;6299775;22;20073;-73
2022/12/20 08:05:08;;;;;;;29.58;19.95;;;;;;;1.29;91.64;100810.91;6300176;22;20076;-73
2022/12/20 08:08:13;;;;;;;25.02;20.05;;;;;;;1.44;91.22;100809.06;6300355;22;20068;-73
2022/12/20 08:11:19;;;;;;;23.42;17.98;;;;;;;1.26;91.83;100810.09;6301280;22;20350;-73
2022/12/20 08:14:23;;;;;;;28.25;20.08;;;;;;;1.29;91.77;100822.94;6300601;22;20098;-73
2022/12/20 08:17:26;;;;;;;28.38;21.38;;;;;;;1.34;91.64;100810.88;6301259;22;20795;-73
2022/12/20 08:20:29;;;;;;;28.35;19.77;;;;;;;1.22;92.02;100819.59;6302003;22;20022;-73
2022/12/20 08:23:33;;;;;;;22.00;17.77;;;;;;;1.22;92.62;100823.88;6301305;22;20053;-73
2022/12/20 08:26:40;;;;;;;24.55;17.75;;;;;;;1.17;92.79;100823.91;6301512;22;20042;-73
2022/12/20 08:29:44;;;;;;;24.50;18.63;;;;;;;1.38;92.38;100830.59;6301509;22;20049;-73
2022/12/20 08:32:47;;;;;;;28.10;18.75;;;;;;;1.35;91.65;100828.91;6283620;22;20095;-73
2022/12/20 08:35:56;;;;;;;;;;;;;;;1.30;91.77;100825.50;6303723;22;20042;-73
2022/12/20 08:39:03;;;;;;;25.67;17.33;;;;;;;1.32;92.04;100813.47;6303109;22;19917;-73
2022/12/20 08:42:07;;;;;;;25.30;17.85;;;;;;;1.25;92.79;100814.41;6301171;22;20364;-73
2022/12/20 08:45:11;;;;;;;;;;;;;;;1.38;91.85;100820.28;6300846;22;20030;-73
2022/12/20 08:48:14;;;;;;;23.30;18.13;;;;;;;1.30;92.30;100817.78;6301595;22;19983;-73
2022/12/20 08:51:17;;;;;;;26.40;19.75;;;;;;;1.39;91.91;100811.69;6301286;22;20026;-73
2022/12/20 08:54:21;;;;;;;22.88;17.73;;;;;;;1.32;92.28;100803.16;6301987;22;20022;-73
2022/12/20 08:57:25;;;;;;;34.25;23.30;;;;;;;1.15;92.85;100800.75;6302582;22;20026;-72
2022/12/20 09:00:28;;;;;;;24.75;19.67;;;;;;;1.50;91.38;100799.56;6302696;22;20327;-73
2022/12/20 09:03:33;;;;;;;26.63;19.02;;;;;;;1.55;91.39;100781.44;6301495;22;20018;-73
2022/12/20 09:06:37;;;;;;;24.23;19.27;;;;;;;1.30;92.46;100780.84;6301552;22;20038;-73
2022/12/20 09:09:40;;;;;;;;;;;;;;;1.31;92.71;100780.00;6302052;22;20076;-73
2022/12/20 09:12:43;;;;;;;24.17;17.90;;;;;;;1.41;91.91;100784.19;6300664;22;20241;-73
2022/12/20 09:15:46;;;;;;;20.80;17.45;;;;;;;1.43;92.33;100777.28;6302420;22;20073;-72
2022/12/20 09:18:52;;;;;;;28.50;21.00;;;;;;;1.54;91.73;100793.50;6302397;22;20072;-72
2022/12/20 09:21:55;;;;;;;28.63;22.48;;;;;;;1.53;91.68;100784.06;6299576;22;20080;-73
2022/12/20 09:25:05;;;;;;;29.30;21.95;;;;;;;1.42;92.85;100790.19;6299626;22;20076;-73
2022/12/20 09:28:09;;;;;;;27.10;21.58;;;;;;;1.52;92.53;100784.91;6298700;22;20034;-72
2022/12/20 09:31:15;;;;;;;26.75;20.75;;;;;;;1.61;91.36;100792.53;6299883;22;20077;-73
2022/12/20 09:34:19;;;;;;;25.58;19.60;;;;;;;1.69;91.46;100791.59;6299518;22;20073;-73
2022/12/20 09:37:22;;;;;;;25.30;19.60;;;;;;;1.41;92.46;100793.66;6301749;22;20025;-74
2022/12/20 09:40:29;;;;;;;23.58;17.23;;;;;;;1.47;92.51;100789.28;6283025;22;20026;-74
2022/12/20 09:43:33;;;;;;;23.63;17.73;;;;;;;1.41;92.20;100783.34;6302706;22;20073;-74
2022/12/20 09:46:38;;;;;;;26.30;19.15;;;;;;;1.31;92.76;100783.44;6302218;22;20037;-74
2022/12/20 09:49:44;;;;;;;21.80;15.90;;;;;;;1.49;92.59;100782.38;6301488;22;20463;-73
2022/12/20 09:53:11;;;;;;;26.05;16.70;;;;;;;1.52;92.42;100772.03;6282346;22;20053;-73
2022/12/20 09:56:23;;;;;;;22.80;16.13;;;;;;;1.64;91.80;100771.03;6300336;22;20022;-73
2022/12/20 09:59:27;;;;;;;21.73;16.85;;;;;;;1.54;91.69;100770.28;6300986;22;20054;-73
2022/12/20 10:02:30;;;;;;;21.55;16.95;;;;;;;1.50;91.92;100763.47;6301573;22;20081;-73
2022/12/20 10:05:53;;;;;;;26.10;18.42;;;;;;;1.01;93.86;100758.81;6302243;22;20496;-69
2022/12/20 10:09:03;;;;;;;22.83;17.50;;;;;;;0.84;95.33;100753.81;6300517;22;20027;-69
2022/12/20 10:12:20;;;;;;;22.08;16.15;;;;;;;1.21;94.81;100745.72;6300531;22;20025;-71
2022/12/20 10:15:37;;;;;;;23.65;17.85;;;;;;;1.20;94.43;100744.03;6301290;22;20026;-71
2022/12/20 10:19:01;;;;;;;21.67;16.95;;;;;;;1.27;93.83;100743.09;6301264;22;20101;-70
2022/12/20 10:22:04;;;;;;;28.05;20.67;;;;;;;1.69;91.96;100753.81;6300810;22;20141;-73
2022/12/20 10:25:18;;;;;;;21.75;17.27;;;;;;;1.52;92.18;100745.41;6299914;22;20342;-73
2022/12/20 10:28:30;;;;;;;25.33;19.75;;;;;;;1.67;91.84;100734.06;6300878;22;20053;-73
2022/12/20 10:31:35;;;;;;;21.02;16.10;;;;;;;1.62;91.38;100737.53;6300672;22;20026;-73
2022/12/20 10:34:37;;;;;;;19.17;15.45;;;;;;;1.67;91.79;100734.06;6300770;22;20022;-73
2022/12/20 10:38:05;;;;;;;21.23;15.48;;;;;;;1.65;91.98;100731.50;6300785;22;20057;-73
2022/12/20 10:41:16;;;;;;;20.95;16.40;;;;;;;1.71;91.79;100720.25;6301002;22;20045;-73
2022/12/20 10:44:26;;;;;;;20.38;16.08;;;;;;;1.81;91.64;100722.69;6301626;22;20022;-73
2022/12/20 10:47:44;;;;;;;25.60;16.02;;;;;;;1.78;91.53;100725.31;6301680;22;20401;-73
2022/12/20 10:50:55;;;;;;;22.95;16.40;;;;;;;1.80;91.39;100704.69;6301001;22;20027;-73
2022/12/20 10:54:25;;;;;;;20.45;15.55;;;;;;;1.73;91.78;100703.06;6300027;22;20069;-73
2022/12/20 10:57:32;;;;;;;20.95;16.80;;;;;;;1.70;92.42;100703.94;6301451;22;20080;-72
2022/12/20 11:00:35;;;;;;;25.92;18.77;;;;;;;1.63;92.45;100697.19;6301506;22;20157;-75
2022/12/20 11:04:06;;;;;;;22.08;16.63;;;;;;;1.67;92.52;100698.84;6300809;22;20018;-75
2022/12/20 11:07:28;;;;;;;22.52;17.65;;;;;;;1.83;91.79;100699.47;6299872;22;20481;-75
2022/12/20 11:10:33;;;;;;;21.77;17.38;;;;;;;1.80;91.78;100689.22;6300793;22;20033;-75
2022/12/20 11:13:44;;;;;;;23.02;17.52;;;;;;;1.82;91.81;100688.31;6300916;22;20045;-75
2022/12/20 11:16:50;;;;;;;24.92;17.33;;;;;;;1.77;92.11;100694.41;6300440;22;20069;-75
2022/12/20 11:20:07;;;;;;;20.17;16.23;;;;;;;1.82;92.10;100696.06;6300601;22;20413;-75
2022/12/20 11:23:35;;;;;;;21.90;15.73;;;;;;;1.79;92.82;100679.78;6300890;22;20072;-74
2022/12/20 11:26:41;;;;;;;20.23;15.75;;;;;;;1.83;92.03;100668.53;6300531;22;20338;-75
2022/12/20 11:30:20;;;;;;;23.17;17.77;;;;;;;1.96;91.39;100667.50;6299862;22;20085;-75
2022/12/20 11:33:38;;;;;;;25.65;19.02;;;;;;;1.83;92.55;100660.81;6300375;22;20171;-75
2022/12/20 11:37:18;;;;;;;20.80;16.02;;;;;;;1.80;92.40;100656.53;6299938;22;20022;-75
2022/12/20 11:40:47;;;;;;;20.15;15.93;;;;;;;2.07;91.78;100642.41;6300800;22;20069;-75
2022/12/20 11:44:30;;;;;;;25.17;17.85;;;;;;;2.07;91.73;100646.69;6300705;22;20022;-75
2022/12/20 11:47:39;;;;;;;23.88;17.80;;;;;;;1.93;91.68;100636.59;6300421;22;20081;-75
2022/12/20 11:50:56;;;;;;;19.80;15.20;;;;;;;2.05;91.53;100636.41;6280770;22;20076;-75
2022/12/20 11:54:30;;;;;;;17.95;14.00;;;;;;;1.91;92.36;100633.16;6302441;22;20037;-75
2022/12/20 11:57:45;;;;;;;20.98;15.88;;;;;;;1.94;92.47;100619.38;6302185;22;20384;-74
2022/12/20 12:01:20;;;;;;;33.70;17.17;;;;;;;2.05;92.44;100625.25;6302352;22;20472;-74
2022/12/20 12:04:30;;;;;;;21.95;16.02;;;;;;;2.10;91.78;100619.13;6287015;22;20026;-75
2022/12/20 12:07:38;;;;;;;21.85;15.93;;;;;;;1.87;93.06;100618.63;6302019;22;20042;-73
2022/12/20 12:10:53;;;;;;;22.30;16.45;;;;;;;1.97;92.92;100620.19;6301584;22;20076;-73
2022/12/20 12:14:00;;;;;;;21.67;16.48;;;;;;;1.98;92.72;100611.59;6300473;22;20146;-73
2022/12/20 12:17:16;;;;;;;23.13;16.98;;;;;;;2.08;92.55;100613.16;6301993;22;20092;-73
2022/12/20 12:20:43;;;;;;;26.45;18.08;;;;;;;2.12;92.29;100607.94;6302747;22;20515;-73
2022/12/20 12:24:02;;;;;;;20.95;15.85;;;;;;;2.37;91.47;100593.75;6301875;22;20023;-73
2022/12/20 12:27:13;;;;;;;23.35;17.73;;;;;;;2.34;90.86;100588.63;6301673;22;20022;-74
2022/12/20 12:30:16;;;;;;;22.08;17.63;;;;;;;2.33;91.15;100584.38;6302429;22;20520;-75
2022/12/20 12:33:25;;;;;;;23.13;17.13;;;;;;;2.46;90.81;100585.84;6301057;22;20073;-75
2022/12/20 12:37:02;;;;;;;27.58;21.05;;;;;;;2.38;91.02;100569.63;6301976;22;20436;-73
2022/12/20 12:40:14;;;;;;;24.10;18.13;;;;;;;2.28;91.36;100563.78;6282582;22;20076;-72
2022/12/20 12:43:53;;;;;;;26.10;18.65;;;;;;;2.12;92.82;100551.19;6282118;22;20076;-73
2022/12/20 12:47:05;;;;;;;23.58;17.20;;;;;;;2.10;93.40;100549.47;6300963;22;20066;-73
2022/12/20 12:50:25;;;;;;;24.25;17.85;;;;;;;2.40;92.16;100552.41;6301935;22;20027;-72
2022/12/20 12:53:36;;;;;;;23.88;17.40;;;;;;;2.30;92.68;100556.88;6302506;22;20054;-73
2022/12/20 12:56:47;;;;;;;25.70;19.30;;;;;;;2.50;91.50;100561.69;6302600;22;20464;-72
2022/12/20 12:59:51;;;;;;;24.27;17.60;;;;;;;2.47;91.57;100560.88;6302700;22;20462;-72
2022/12/20 13:02:57;;;;;;;21.88;15.18;;;;;;;2.50;92.33;100553.09;6301614;22;20072;-72
2022/12/20 13:06:22;;;;;;;19.63;15.00;;;;;;;2.49;92.15;100556.53;6301942;22;20046;-72
2022/12/20 13:09:25;;;;;;;21.65;17.15;;;;;;;2.60;91.44;100564.09;6300606;22;20022;-73
2022/12/20 13:12:37;;;;;;;41.85;30.80;;;;;;;2.66;91.30;100563.97;6298728;22;20462;-72
2022/12/20 13:15:40;;;;;;;22.92;17.73;;;;;;;2.45;92.19;100566.06;6299466;22;20072;-73
2022/12/20 13:18:58;;;;;;;20.88;17.95;;;;;;;2.61;91.52;100565.78;6300712;22;20048;-72
2022/12/20 13:22:10;;;;;;;22.02;16.58;;;;;;;2.50;92.33;100566.84;6300627;22;20033;-72
2022/12/20 13:25:51;;;;;;;22.90;16.60;;;;;;;2.47;92.55;100559.16;6282941;22;20025;-72
2022/12/20 13:29:54;;;;;;;23.05;17.23;;;;;;;2.51;93.06;100554.78;6301943;22;20022;-72
2022/12/20 13:33:22;;;;;;;24.27;18.35;;;;;;;2.68;92.45;100541.53;6301099;22;20606;-72
2022/12/20 13:36:36;;;;;;;21.95;17.70;;;;;;;2.48;93.27;100535.03;6283375;22;20049;-73
2022/12/20 13:39:39;;;;;;;21.38;16.60;;;;;;;2.36;93.61;100535.25;6302170;22;20026;-72
2022/12/20 13:42:42;;;;;;;20.13;15.63;;;;;;;2.43;93.94;100538.59;6302100;22;20030;-73
2022/12/20 13:46:04;;;;;;;;;;;;;;;2.37;94.38;100534.41;6301463;22;20031;-73
2022/12/20 13:49:16;;;;;;;17.88;14.65;;;;;;;2.37;94.74;100534.41;6301786;22;20333;-73
2022/12/20 13:52:37;;;;;;;20.05;15.88;;;;;;;2.51;93.87;100528.97;6302882;22;20076;-73
2022/12/20 13:55:41;;;;;;;21.40;15.18;;;;;;;2.45;94.88;100518.75;6302558;22;20030;-73
2022/12/20 13:58:46;;;;;;;21.90;16.35;;;;;;;2.56;93.78;100528.00;6300423;22;20061;-73
2022/12/20 14:01:55;;;;;;;21.45;14.82;;;;;;;2.53;93.88;100529.81;6300999;22;20099;-73
2022/12/20 14:05:02;;;;;;;19.60;15.93;;;;;;;2.52;93.83;100526.38;6280806;22;20096;-73
2022/12/20 14:08:18;;;;;;;21.73;16.45;;;;;;;2.46;93.88;100531.66;6299572;22;20073;-73
2022/12/20 14:11:27;;;;;;;18.60;14.73;;;;;;;2.41;94.73;100541.19;6299102;22;20049;-73
2022/12/20 14:14:44;;;;;;;20.67;15.18;;;;;;;2.35;94.76;100546.47;6298292;22;20072;-73
2022/12/20 14:18:06;;;;;;;21.27;15.13;;;;;;;2.40;94.76;100547.25;6301584;22;20347;-73
2022/12/20 14:21:17;;;;;;;;;;;;;;;2.41;95.08;100538.63;6300714;22;20508;-73
2022/12/20 14:24:21;;;;;;;21.60;17.25;;;;;;;2.37;95.29;100530.97;6301166;22;19914;-73
2022/12/20 14:27:32;;;;;;;23.70;16.75;;;;;;;2.31;94.26;100525.03;6301367;22;20452;-73
2022/12/20 14:30:43;;;;;;;20.23;15.85;;;;;;;2.46;94.34;100526.50;6300390;22;20141;-73
2022/12/20 14:33:47;;;;;;;17.50;14.18;;;;;;;2.32;94.55;100528.47;6300731;22;20021;-73
2022/12/20 14:36:51;;;;;;;22.10;14.65;;;;;;;2.32;94.94;100523.31;6303289;22;20069;-72
2022/12/20 14:40:17;;;;;;;21.23;15.55;;;;;;;2.55;94.42;100515.13;6301515;22;20026;-73
2022/12/20 14:43:32;;;;;;;22.00;17.00;;;;;;;2.27;94.53;100522.56;6296600;22;20025;-73
2022/12/20 14:46:37;;;;;;;24.27;16.55;;;;;;;2.27;94.75;100519.97;6299332;22;20049;-74
2022/12/20 14:49:51;;;;;;;17.67;14.65;;;;;;;2.18;95.48;100504.66;6299832;22;20100;-73